Norrland — C4KF2 — position and weather

sailwx.info

Track history (hours):
 
Tides and Currents Weather Stations Pressure Air Temp Water Temp Dewpoint Dewpoint Depression Visibility Wind Speed Wind Dir Waves Ship Positions

Norrland

Last reported at 2017-Mar-22 04:32 UTC. Time now 2017-Mar-24 06:16 UTC.
Position N 56°00' E 016°34'.

Length 118 m; draft 4.6 m.

Type: Cargo ship. MMSI: 212521000.

Date/timePositionNaut miles runAvg speedWind from/ knotsBaromVisibWave heightAir tempDewpointWater temp
2017-Mar-22 04:32N 56°00' E 016°34'1212.2
2017-Mar-22 03:34N 55°55' E 016°15'1211.8
2017-Mar-22 02:33N 55°52' E 015°54'1212.0
2017-Mar-22 01:33N 55°54' E 015°33'1212.2
2017-Mar-22 00:34N 55°59' E 015°14'1212.2
2017-Mar-21 23:34N 56°05' E 014°54'5 1.0
2017-Mar-21 18:18N 56°09' E 014°49'0 0.0
2017-Mar-21 17:30N 56°09' E 014°49'0 0.0
2017-Mar-21 16:18N 56°09' E 014°49'0 0.0
2017-Mar-21 15:33N 56°09' E 014°49'0 0.0
2017-Mar-21 14:33N 56°09' E 014°49'0 0.0
2017-Mar-21 13:27N 56°09' E 014°49'0 0.0
2017-Mar-21 12:27N 56°09' E 014°49'0 0.0
2017-Mar-21 11:15N 56°09' E 014°49'0 0.0
2017-Mar-21 10:33N 56°09' E 014°49'0 0.0
2017-Mar-21 08:18N 56°09' E 014°49'0 0.0
2017-Mar-21 07:30N 56°09' E 014°49'0 0.0
2017-Mar-21 03:24N 56°09' E 014°49'0 0.0
2017-Mar-21 01:24N 56°09' E 014°49'0 0.0
2017-Mar-20 19:06N 56°09' E 014°49'0 0.0
2017-Mar-20 17:24N 56°09' E 014°49'0 0.0
2017-Mar-20 16:23N 56°09' E 014°49'4 4.5
2017-Mar-20 15:33N 56°06' E 014°52'1110.6
2017-Mar-20 14:33N 55°59' E 015°06'1010.4
2017-Mar-20 13:33N 55°55' E 015°23'1110.8
2017-Mar-20 12:33N 55°53' E 015°42'1110.9
2017-Mar-20 11:33N 55°55' E 016°01'1111.3
2017-Mar-20 10:33N 56°01' E 016°18'1111.3
2017-Mar-20 09:33N 56°06' E 016°36'1111.4
2017-Mar-20 08:33N 56°13' E 016°52'  
2017-Mar-16 17:33N 56°03' E 016°45'1212.4
2017-Mar-16 16:33N 55°57' E 016°26'1212.3
2017-Mar-16 15:33N 55°51' E 016°07'1212.3
2017-Mar-16 14:33N 55°45' E 015°48'1312.7
2017-Mar-16 13:33N 55°39' E 015°28'1312.7
2017-Mar-16 12:33N 55°33' E 015°09'1312.5
2017-Mar-16 11:33N 55°27' E 014°49'1212.3
2017-Mar-16 10:32N 55°19' E 014°33'1212.1
2017-Mar-16 09:34N 55°09' E 014°19'1212.0
2017-Mar-16 08:33N 55°00' E 014°06'1211.9
2017-Mar-16 07:31N 54°57' E 013°45'1211.9
2017-Mar-16 06:28N 54°53' E 013°25'1412.2
2017-Mar-16 05:17N 54°48' E 013°01'912.5
2017-Mar-16 04:33N 54°45' E 012°46'2412.1
2017-Mar-16 02:33N 54°29' E 012°15'1211.6
2017-Mar-16 01:33N 54°24' E 011°57'1312.8
2017-Mar-16 00:33N 54°17' E 011°39'1312.5
2017-Mar-15 23:30N 54°10' E 011°19'12 0.3
2017-Mar-14 06:34N 54°03' E 011°02'1212.2
2017-Mar-14 05:34N 54°11' E 011°18'1212.4
2017-Mar-14 04:34N 54°18' E 011°36'1413.2
2017-Mar-14 03:31N 54°25' E 011°56'1311.9
2017-Mar-14 02:27N 54°33' E 012°13'1112.6
2017-Mar-14 01:34N 54°41' E 012°27'5213.0
2017-Mar-13 21:32N 55°03' E 013°49'1212.5
2017-Mar-13 20:33N 55°08' E 014°09'1313.4
2017-Mar-13 19:33N 55°18' E 014°24'1313.2
2017-Mar-13 18:34N 55°28' E 014°39'1312.9
2017-Mar-13 17:34N 55°34' E 014°59'1313.2
2017-Mar-13 16:33N 55°41' E 015°19'1313.2
2017-Mar-13 15:34N 55°47' E 015°40'1313.2
2017-Mar-13 14:34N 55°54' E 015°60'1313.2
2017-Mar-13 13:33N 56°01' E 016°20'1313.1
2017-Mar-13 12:33N 56°08' E 016°40'1312.6
2017-Mar-13 11:34N 56°18' E 016°53'1813.1
2017-Mar-13 10:09N 56°35' E 017°04'1013.1
2017-Mar-13 09:21N 56°45' E 017°11'1212.9
2017-Mar-13 08:24N 56°57' E 017°19'1113.1
2017-Mar-13 07:33N 57°07' E 017°26'1313.0
2017-Mar-13 06:34N 57°19' E 017°34'  
Track history (hours):
 
Tides and Currents Weather Stations Pressure Air Temp Water Temp Dewpoint Dewpoint Depression Visibility Wind Speed Wind Dir Waves Ship Positions

Norrland

Last reported at 2017-Mar-22 04:32 UTC. Time now 2017-Mar-24 06:16 UTC.
Position N 56°00' E 016°34'.

Length 118 m; draft 4.6 m.

Type: Cargo ship. MMSI: 212521000.

Date/timePositionNaut miles runAvg speedWind from/ knotsBaromVisibWave heightAir tempDewpointWater temp
2017-Mar-22 04:32N 56°00' E 016°34'1212.2
2017-Mar-22 03:34N 55°55' E 016°15'1211.8
2017-Mar-22 02:33N 55°52' E 015°54'1212.0
2017-Mar-22 01:33N 55°54' E 015°33'1212.2
2017-Mar-22 00:34N 55°59' E 015°14'1212.2
2017-Mar-21 23:34N 56°05' E 014°54'5 1.0
2017-Mar-21 18:18N 56°09' E 014°49'0 0.0
2017-Mar-21 17:30N 56°09' E 014°49'0 0.0
2017-Mar-21 16:18N 56°09' E 014°49'0 0.0
2017-Mar-21 15:33N 56°09' E 014°49'0 0.0
2017-Mar-21 14:33N 56°09' E 014°49'0 0.0
2017-Mar-21 13:27N 56°09' E 014°49'0 0.0
2017-Mar-21 12:27N 56°09' E 014°49'0 0.0
2017-Mar-21 11:15N 56°09' E 014°49'0 0.0
2017-Mar-21 10:33N 56°09' E 014°49'0 0.0
2017-Mar-21 08:18N 56°09' E 014°49'0 0.0
2017-Mar-21 07:30N 56°09' E 014°49'0 0.0
2017-Mar-21 03:24N 56°09' E 014°49'0 0.0
2017-Mar-21 01:24N 56°09' E 014°49'0 0.0
2017-Mar-20 19:06N 56°09' E 014°49'0 0.0
2017-Mar-20 17:24N 56°09' E 014°49'0 0.0
2017-Mar-20 16:23N 56°09' E 014°49'4 4.5
2017-Mar-20 15:33N 56°06' E 014°52'1110.6
2017-Mar-20 14:33N 55°59' E 015°06'1010.4
2017-Mar-20 13:33N 55°55' E 015°23'1110.8
2017-Mar-20 12:33N 55°53' E 015°42'1110.9
2017-Mar-20 11:33N 55°55' E 016°01'1111.3
2017-Mar-20 10:33N 56°01' E 016°18'1111.3
2017-Mar-20 09:33N 56°06' E 016°36'1111.4
2017-Mar-20 08:33N 56°13' E 016°52'  
2017-Mar-16 17:33N 56°03' E 016°45'1212.4
2017-Mar-16 16:33N 55°57' E 016°26'1212.3
2017-Mar-16 15:33N 55°51' E 016°07'1212.3
2017-Mar-16 14:33N 55°45' E 015°48'1312.7
2017-Mar-16 13:33N 55°39' E 015°28'1312.7
2017-Mar-16 12:33N 55°33' E 015°09'1312.5
2017-Mar-16 11:33N 55°27' E 014°49'1212.3
2017-Mar-16 10:32N 55°19' E 014°33'1212.1
2017-Mar-16 09:34N 55°09' E 014°19'1212.0
2017-Mar-16 08:33N 55°00' E 014°06'1211.9
2017-Mar-16 07:31N 54°57' E 013°45'1211.9
2017-Mar-16 06:28N 54°53' E 013°25'1412.2
2017-Mar-16 05:17N 54°48' E 013°01'912.5
2017-Mar-16 04:33N 54°45' E 012°46'2412.1
2017-Mar-16 02:33N 54°29' E 012°15'1211.6
2017-Mar-16 01:33N 54°24' E 011°57'1312.8
2017-Mar-16 00:33N 54°17' E 011°39'1312.5
2017-Mar-15 23:30N 54°10' E 011°19'12 0.3
2017-Mar-14 06:34N 54°03' E 011°02'1212.2
2017-Mar-14 05:34N 54°11' E 011°18'1212.4
2017-Mar-14 04:34N 54°18' E 011°36'1413.2
2017-Mar-14 03:31N 54°25' E 011°56'1311.9
2017-Mar-14 02:27N 54°33' E 012°13'1112.6
2017-Mar-14 01:34N 54°41' E 012°27'5213.0
2017-Mar-13 21:32N 55°03' E 013°49'1212.5
2017-Mar-13 20:33N 55°08' E 014°09'1313.4
2017-Mar-13 19:33N 55°18' E 014°24'1313.2
2017-Mar-13 18:34N 55°28' E 014°39'1312.9
2017-Mar-13 17:34N 55°34' E 014°59'1313.2
2017-Mar-13 16:33N 55°41' E 015°19'1313.2
2017-Mar-13 15:34N 55°47' E 015°40'1313.2
2017-Mar-13 14:34N 55°54' E 015°60'1313.2
2017-Mar-13 13:33N 56°01' E 016°20'1313.1
2017-Mar-13 12:33N 56°08' E 016°40'1312.6
2017-Mar-13 11:34N 56°18' E 016°53'1813.1
2017-Mar-13 10:09N 56°35' E 017°04'1013.1
2017-Mar-13 09:21N 56°45' E 017°11'1212.9
2017-Mar-13 08:24N 56°57' E 017°19'1113.1
2017-Mar-13 07:33N 57°07' E 017°26'1313.0
2017-Mar-13 06:34N 57°19' E 017°34'  

Dump ship's entire track history